Time;durP1;ratioP1;P1;durP2;ratioP2;P2;SDS_P1;SDS_P2;PMS_P1;PMS_P2;Temp;Humidity;BMP_temperature;BMP_pressure;BME280_temperature;BME280_humidity;BME280_pressure;Samples;Min_cycle;Max_cycle;Signal;HPM_P1;HPM_P2
2024/03/29 00:01:36;;;;;;;;;;;;;;;;;;5104011;28;20314;-61
2024/03/29 00:04:01;;;;;;;;;;;;;;;;;;5104407;28;20003;-61
2024/03/29 00:06:27;;;;;;;;;;;;;;;;;;5098127;28;19912;-61
2024/03/29 00:08:52;;;;;;;;;;;;;;;;;;5096138;28;19908;-61
2024/03/29 00:11:17;;;;;;;;;;;;;;;;;;5100276;28;19912;-60
2024/03/29 00:13:42;;;;;;;;;;;;;;;;;;5102956;28;19912;-61
2024/03/29 00:16:07;;;;;;;;;;;;;;;;;;5101216;28;20007;-61
2024/03/29 00:18:32;;;;;;;;;;;;;;;;;;5096884;28;19912;-62
2024/03/29 00:20:57;;;;;;;;;;;;;;;;;;5098503;28;19907;-62
2024/03/29 00:23:22;;;;;;;;;;;;;;;;;;5109562;28;19918;-61
2024/03/29 00:25:48;;;;;;;;;;;;;;;;;;5100406;28;19912;-61
2024/03/29 00:28:13;;;;;;;;;;;;;;;;;;5094423;28;19914;-61
2024/03/29 00:30:38;;;;;;;;;;;;;;;;;;5092170;28;19952;-61
2024/03/29 00:33:03;;;;;;;;;;;;;;;;;;5092680;28;19924;-61
2024/03/29 00:35:28;;;;;;;;;;;;;;;;;;5112210;28;19915;-62
2024/03/29 00:37:53;;;;;;;;;;;;;;;;;;5092878;28;19919;-60
2024/03/29 00:40:18;;;;;;;;;;;;;;;;;;5091921;28;19959;-62
2024/03/29 00:42:43;;;;;;;;;;;;;;;;;;5091846;28;19920;-61
2024/03/29 00:45:08;;;;;;;;;;;;;;;;;;5092195;28;19908;-60
2024/03/29 00:47:34;;;;;;;;;;;;;;;;;;5108687;28;20368;-60
2024/03/29 00:49:59;;;;;;;;;;;;;;;;;;5093805;28;20368;-61
2024/03/29 00:52:24;;;;;;;;;;;;;;;;;;5094493;28;20425;-60
2024/03/29 00:54:50;;;;;;;;;;;;;;;;;;5092200;28;19908;-60
2024/03/29 00:57:15;;;;;;;;;;;;;;;;;;5091738;28;19912;-61
2024/03/29 00:59:42;;;;;;;;;;;;;;;;;;5094656;28;19918;-61
2024/03/29 01:02:07;;;;;;;;;;;;;;;;;;5091634;28;19915;-69
2024/03/29 01:04:33;;;;;;;;;;;;;;;;;;5091752;28;19908;-68
2024/03/29 01:06:58;;;;;;;;;;;;;;;;;;5091524;28;19961;-69
2024/03/29 01:09:23;;;;;;;;;;;;;;;;;;5091917;28;19914;-69
2024/03/29 01:11:48;;;;;;;;;;;;;;;;;;5110648;28;20012;-69
2024/03/29 01:14:13;;;;;;;;;;;;;;;;;;5111928;28;19937;-69
2024/03/29 01:16:38;;;;;;;;;;;;;;;;;;5112012;28;19912;-68
2024/03/29 01:19:05;;;;;;;;;;;;;;;;;;5112159;28;19908;-68
2024/03/29 01:21:30;;;;;;;;;;;;;;;;;;5105493;28;19908;-69
2024/03/29 01:23:55;;;;;;;;;;;;;;;;;;5091611;28;19935;-70
2024/03/29 01:26:20;;;;;;;;;;;;;;;;;;5091669;28;20339;-68
2024/03/29 01:28:45;;;;;;;;;;;;;;;;;;5092076;28;20379;-68
2024/03/29 01:31:10;;;;;;;;;;;;;;;;;;5108223;28;20314;-70
2024/03/29 01:33:39;;;;;;;;;;;;;;;;;;5111961;28;19916;-68
2024/03/29 01:36:05;;;;;;;;;;;;;;;;;;5111731;28;19911;-69
2024/03/29 01:38:30;;;;;;;;;;;;;;;;;;5111521;28;20015;-69
2024/03/29 01:40:55;;;;;;;;;;;;;;;;;;5111385;28;19927;-69
2024/03/29 01:43:20;;;;;;;;;;;;;;;;;;5111408;28;19911;-68
2024/03/29 01:45:45;;;;;;;;;;;;;;;;;;5108310;28;19908;-69
2024/03/29 01:48:10;;;;;;;;;;;;;;;;;;5108200;28;19916;-68
2024/03/29 01:50:35;;;;;;;;;;;;;;;;;;5091172;28;19916;-68
2024/03/29 01:53:01;;;;;;;;;;;;;;;;;;5091439;28;20002;-68
2024/03/29 01:55:26;;;;;;;;;;;;;;;;;;5091103;28;19908;-68
2024/03/29 01:57:51;;;;;;;;;;;;;;;;;;5091341;28;20492;-69
2024/03/29 02:00:16;;;;;;;;;;;;;;;;;;5090906;28;20348;-69
2024/03/29 02:02:41;;;;;;;;;;;;;;;;;;5091125;28;19912;-68
2024/03/29 02:05:07;;;;;;;;;;;;;;;;;;5094451;28;19955;-69
2024/03/29 02:07:32;;;;;;;;;;;;;;;;;;5094966;28;19908;-69
2024/03/29 02:09:57;;;;;;;;;;;;;;;;;;5094731;28;19912;-69
2024/03/29 02:12:22;;;;;;;;;;;;;;;;;;5094892;28;19961;-69
2024/03/29 02:14:47;;;;;;;;;;;;;;;;;;5094697;28;19970;-68
2024/03/29 02:17:12;;;;;;;;;;;;;;;;;;5106810;28;19911;-68
2024/03/29 02:19:37;;;;;;;;;;;;;;;;;;5097050;28;19974;-68
2024/03/29 02:22:05;;;;;;;;;;;;;;;;;;5094576;28;19908;-68
2024/03/29 02:24:30;;;;;;;;;;;;;;;;;;5105808;28;20257;-68
2024/03/29 02:26:55;;;;;;;;;;;;;;;;;;5094534;28;19918;-68
2024/03/29 02:29:20;;;;;;;;;;;;;;;;;;5094340;28;19912;-69
2024/03/29 02:31:45;;;;;;;;;;;;;;;;;;5097233;28;20002;-68
2024/03/29 02:34:10;;;;;;;;;;;;;;;;;;5094634;28;19962;-69
2024/03/29 02:36:36;;;;;;;;;;;;;;;;;;5109000;28;20286;-67
2024/03/29 02:39:01;;;;;;;;;;;;;;;;;;5114777;28;19987;-68
2024/03/29 02:41:26;;;;;;;;;;;;;;;;;;5114570;28;20367;-68
2024/03/29 02:43:51;;;;;;;;;;;;;;;;;;5094532;28;19913;-68
2024/03/29 02:46:17;;;;;;;;;;;;;;;;;;5094232;28;19921;-69
2024/03/29 02:48:42;;;;;;;;;;;;;;;;;;5093974;28;19915;-67
2024/03/29 02:51:08;;;;;;;;;;;;;;;;;;5094036;28;19961;-68
2024/03/29 02:53:33;;;;;;;;;;;;;;;;;;5111052;28;19952;-69
2024/03/29 02:55:58;;;;;;;;;;;;;;;;;;5114528;28;19915;-68
2024/03/29 02:58:23;;;;;;;;;;;;;;;;;;5114210;28;19915;-67
2024/03/29 03:00:48;;;;;;;;;;;;;;;;;;5111688;28;19919;-68
2024/03/29 03:03:13;;;;;;;;;;;;;;;;;;5112156;28;20002;-68
2024/03/29 03:05:38;;;;;;;;;;;;;;;;;;5114403;28;20320;-67
2024/03/29 03:10:59;;;;;;;;;;;;;;;;;;5094772;28;19966;-67
2024/03/29 03:13:24;;;;;;;;;;;;;;;;;;5093927;28;19908;-66
2024/03/29 03:15:49;;;;;;;;;;;;;;;;;;5092730;28;20280;-68
2024/03/29 03:18:14;;;;;;;;;;;;;;;;;;5098425;28;20365;-67
2024/03/29 03:20:39;;;;;;;;;;;;;;;;;;5114191;28;19934;-59
2024/03/29 03:23:04;;;;;;;;;;;;;;;;;;5113855;28;20432;-60
2024/03/29 03:25:29;;;;;;;;;;;;;;;;;;5113693;28;19908;-59
2024/03/29 03:27:54;;;;;;;;;;;;;;;;;;5093873;28;19908;-60
2024/03/29 03:30:20;;;;;;;;;;;;;;;;;;5093242;28;20697;-59
2024/03/29 03:32:45;;;;;;;;;;;;;;;;;;5093312;28;20432;-59
2024/03/29 03:35:10;;;;;;;;;;;;;;;;;;5093494;28;20343;-60
2024/03/29 03:37:35;;;;;;;;;;;;;;;;;;5093171;28;19912;-60
2024/03/29 03:40:00;;;;;;;;;;;;;;;;;;5095335;28;19935;-60
2024/03/29 03:42:25;;;;;;;;;;;;;;;;;;5113676;28;19931;-60
2024/03/29 03:44:50;;;;;;;;;;;;;;;;;;5093897;28;20394;-59
2024/03/29 03:47:16;;;;;;;;;;;;;;;;;;5093232;28;20459;-60
2024/03/29 03:49:41;;;;;;;;;;;;;;;;;;5105647;28;19933;-60
2024/03/29 03:52:06;;;;;;;;;;;;;;;;;;5113243;28;20006;-60
2024/03/29 03:54:31;;;;;;;;;;;;;;;;;;5113236;28;19908;-60
2024/03/29 03:56:56;;;;;;;;;;;;;;;;;;5113086;28;19920;-60
2024/03/29 03:59:21;;;;;;;;;;;;;;;;;;5113163;28;19908;-60
2024/03/29 04:01:46;;;;;;;;;;;;;;;;;;5093750;28;19931;-59
2024/03/29 04:04:11;;;;;;;;;;;;;;;;;;5092492;28;20024;-61
2024/03/29 04:06:37;;;;;;;;;;;;;;;;;;5092857;28;19912;-60
2024/03/29 04:09:02;;;;;;;;;;;;;;;;;;5092848;28;19909;-61
2024/03/29 04:11:28;;;;;;;;;;;;;;;;;;5092549;28;19954;-59
2024/03/29 04:13:54;;;;;;;;;;;;;;;;;;5092488;28;19915;-60
2024/03/29 04:16:19;;;;;;;;;;;;;;;;;;5092602;28;19908;-61
2024/03/29 04:18:44;;;;;;;;;;;;;;;;;;5093211;28;20478;-60
2024/03/29 04:21:09;;;;;;;;;;;;;;;;;;5092574;28;20288;-61
2024/03/29 04:23:35;;;;;;;;;;;;;;;;;;5108929;28;20237;-61
2024/03/29 04:26:00;;;;;;;;;;;;;;;;;;5104991;28;20383;-61
2024/03/29 04:28:25;;;;;;;;;;;;;;;;;;5109411;28;19915;-61
2024/03/29 04:30:50;;;;;;;;;;;;;;;;;;5097347;28;19934;-61
2024/03/29 04:33:15;;;;;;;;;;;;;;;;;;5092458;28;19983;-62
2024/03/29 04:35:40;;;;;;;;;;;;;;;;;;5096397;28;19912;-61
2024/03/29 04:38:05;;;;;;;;;;;;;;;;;;5112645;28;19907;-62
2024/03/29 04:40:30;;;;;;;;;;;;;;;;;;5112255;28;19962;-62
2024/03/29 04:42:55;;;;;;;;;;;;;;;;;;5112276;28;19938;-61
2024/03/29 04:45:21;;;;;;;;;;;;;;;;;;5112340;28;19915;-62
2024/03/29 04:47:46;;;;;;;;;;;;;;;;;;5112406;28;19912;-61
2024/03/29 04:50:11;;;;;;;;;;;;;;;;;;5092018;28;20007;-61
2024/03/29 04:52:36;;;;;;;;;;;;;;;;;;5109836;28;19911;-61
2024/03/29 04:55:01;;;;;;;;;;;;;;;;;;5112208;28;19911;-61
2024/03/29 04:57:26;;;;;;;;;;;;;;;;;;5096548;28;19923;-62
2024/03/29 04:59:51;;;;;;;;;;;;;;;;;;5091871;28;20461;-61
2024/03/29 05:02:16;;;;;;;;;;;;;;;;;;5091695;28;19961;-62
2024/03/29 05:04:42;;;;;;;;;;;;;;;;;;5092932;28;19908;-61
2024/03/29 05:07:08;;;;;;;;;;;;;;;;;;5091936;28;19935;-62
2024/03/29 05:09:33;;;;;;;;;;;;;;;;;;5108695;28;19974;-61
2024/03/29 05:11:58;;;;;;;;;;;;;;;;;;5111915;28;19911;-61
2024/03/29 05:14:23;;;;;;;;;;;;;;;;;;5094634;28;19908;-61
2024/03/29 05:16:48;;;;;;;;;;;;;;;;;;5091522;28;20296;-61
2024/03/29 05:19:14;;;;;;;;;;;;;;;;;;5094861;28;19962;-61
2024/03/29 05:21:39;;;;;;;;;;;;;;;;;;5112135;28;19911;-61
2024/03/29 05:24:04;;;;;;;;;;;;;;;;;;5112069;28;19918;-61
2024/03/29 05:26:30;;;;;;;;;;;;;;;;;;5094923;28;19950;-61
2024/03/29 05:28:57;;;;;;;;;;;;;;;;;;5091158;28;19951;-61
2024/03/29 05:31:22;;;;;;;;;;;;;;;;;;5091261;28;19912;-60
2024/03/29 05:33:47;;;;;;;;;;;;;;;;;;5091556;28;19977;-61
2024/03/29 05:36:13;;;;;;;;;;;;;;;;;;5091197;28;19960;-61
2024/03/29 05:38:38;;;;;;;;;;;;;;;;;;5092776;28;20343;-61
2024/03/29 05:41:03;;;;;;;;;;;;;;;;;;5095248;28;19928;-68
2024/03/29 05:43:28;;;;;;;;;;;;;;;;;;5095756;28;20376;-68
2024/03/29 05:45:53;;;;;;;;;;;;;;;;;;5095418;28;19908;-68
2024/03/29 05:48:22;;;;;;;;;;;;;;;;;;5099807;28;19908;-68
2024/03/29 05:50:47;;;;;;;;;;;;;;;;;;5112266;28;20002;-68
2024/03/29 05:53:12;;;;;;;;;;;;;;;;;;5115397;28;19947;-68
2024/03/29 05:55:37;;;;;;;;;;;;;;;;;;5115396;28;19969;-68
2024/03/29 05:58:02;;;;;;;;;;;;;;;;;;5115357;28;19915;-69
2024/03/29 06:00:28;;;;;;;;;;;;;;;;;;5098975;28;19908;-68
2024/03/29 06:02:53;;;;;;;;;;;;;;;;;;5095151;28;19924;-68
2024/03/29 06:05:19;;;;;;;;;;;;;;;;;;5094901;28;19981;-68
2024/03/29 06:07:44;;;;;;;;;;;;;;;;;;5094955;28;19916;-69
2024/03/29 06:10:10;;;;;;;;;;;;;;;;;;5094942;28;20307;-68
2024/03/29 06:12:35;;;;;;;;;;;;;;;;;;5094726;28;19908;-68
2024/03/29 06:17:45;;;;;;;;;;;;;;;;;;5098325;28;19918;-68
2024/03/29 06:20:10;;;;;;;;;;;;;;;;;;5094910;28;19912;-68
2024/03/29 06:22:36;;;;;;;;;;;;;;;;;;5113302;28;19916;-68
2024/03/29 06:25:07;;;;;;;;;;;;;;;;;;5115290;28;19991;-68
2024/03/29 06:27:32;;;;;;;;;;;;;;;;;;5097249;28;19912;-68
2024/03/29 06:29:57;;;;;;;;;;;;;;;;;;5097001;28;20535;-68
2024/03/29 06:32:22;;;;;;;;;;;;;;;;;;5095617;28;19915;-69
2024/03/29 06:34:47;;;;;;;;;;;;;;;;;;5114128;28;19911;-68
2024/03/29 06:37:12;;;;;;;;;;;;;;;;;;5097104;28;19995;-68
2024/03/29 06:39:37;;;;;;;;;;;;;;;;;;5094234;28;19920;-68
2024/03/29 06:42:03;;;;;;;;;;;;;;;;;;5094197;28;19918;-68
2024/03/29 06:44:28;;;;;;;;;;;;;;;;;;5094417;28;20454;-69
2024/03/29 06:46:53;;;;;;;;;;;;;;;;;;5094455;28;19951;-68
2024/03/29 06:49:19;;;;;;;;;;;;;;;;;;5112977;28;20343;-68
2024/03/29 06:51:44;;;;;;;;;;;;;;;;;;5097208;28;19947;-60
2024/03/29 06:54:09;;;;;;;;;;;;;;;;;;5093857;28;19908;-61
2024/03/29 06:56:34;;;;;;;;;;;;;;;;;;5093989;28;19995;-61
2024/03/29 06:58:59;;;;;;;;;;;;;;;;;;5104914;28;19919;-60
2024/03/29 07:01:24;;;;;;;;;;;;;;;;;;5108281;28;19930;-61
2024/03/29 07:03:49;;;;;;;;;;;;;;;;;;5102597;28;19942;-61
2024/03/29 07:06:15;;;;;;;;;;;;;;;;;;5099986;28;20288;-61
2024/03/29 07:08:40;;;;;;;;;;;;;;;;;;5105580;28;19951;-60
2024/03/29 07:11:05;;;;;;;;;;;;;;;;;;5103840;28;19908;-60
2024/03/29 07:13:33;;;;;;;;;;;;;;;;;;5100316;28;19923;-62
2024/03/29 07:15:58;;;;;;;;;;;;;;;;;;5099254;28;19908;-61
2024/03/29 07:18:23;;;;;;;;;;;;;;;;;;5093420;28;19923;-61
2024/03/29 07:20:49;;;;;;;;;;;;;;;;;;5106659;28;19912;-60
2024/03/29 07:23:14;;;;;;;;;;;;;;;;;;5114049;28;19952;-60
2024/03/29 07:25:39;;;;;;;;;;;;;;;;;;5094986;28;19927;-61
2024/03/29 07:28:05;;;;;;;;;;;;;;;;;;5093359;28;19993;-60
2024/03/29 07:30:30;;;;;;;;;;;;;;;;;;5094178;28;19920;-62
2024/03/29 07:32:55;;;;;;;;;;;;;;;;;;5106543;28;19915;-61
2024/03/29 07:35:20;;;;;;;;;;;;;;;;;;5102825;28;19908;-61
2024/03/29 07:37:51;;;;;;;;;;;;;;;;;;5112638;28;19951;-61
2024/03/29 07:40:16;;;;;;;;;;;;;;;;;;5113227;28;19924;-61
2024/03/29 07:42:41;;;;;;;;;;;;;;;;;;5095052;28;19927;-61
2024/03/29 07:45:06;;;;;;;;;;;;;;;;;;5095735;28;19916;-61
2024/03/29 07:47:32;;;;;;;;;;;;;;;;;;5098422;28;19908;-61
2024/03/29 07:49:57;;;;;;;;;;;;;;;;;;5096537;28;20015;-60
2024/03/29 07:52:22;;;;;;;;;;;;;;;;;;5101126;28;19919;-61
2024/03/29 07:54:47;;;;;;;;;;;;;;;;;;5080373;28;19930;-63
2024/03/29 07:57:14;;;;;;;;;;;;;;;;;;5107618;28;19956;-61
2024/03/29 07:59:39;;;;;;;;;;;;;;;;;;5102311;28;19908;-60
2024/03/29 08:02:04;;;;;;;;;;;;;;;;;;5102274;28;19919;-67
2024/03/29 08:04:30;;;;;;;;;;;;;;;;;;5101354;28;20408;-67
2024/03/29 08:06:55;;;;;;;;;;;;;;;;;;5112884;28;19911;-68
2024/03/29 08:09:20;;;;;;;;;;;;;;;;;;5113396;28;19962;-68
2024/03/29 08:11:45;;;;;;;;;;;;;;;;;;5113128;28;19918;-69
2024/03/29 08:14:10;;;;;;;;;;;;;;;;;;5112745;28;20008;-69
2024/03/29 08:16:35;;;;;;;;;;;;;;;;;;5095167;28;20338;-68
2024/03/29 08:19:01;;;;;;;;;;;;;;;;;;5092495;28;20023;-69
2024/03/29 08:21:29;;;;;;;;;;;;;;;;;;5094988;28;19965;-69
2024/03/29 08:23:56;;;;;;;;;;;;;;;;;;5103294;28;19950;-68
2024/03/29 08:26:21;;;;;;;;;;;;;;;;;;5100032;28;20372;-69
2024/03/29 08:28:46;;;;;;;;;;;;;;;;;;5074078;28;19918;-69
2024/03/29 08:31:12;;;;;;;;;;;;;;;;;;5092524;28;19945;-69
2024/03/29 08:33:37;;;;;;;;;;;;;;;;;;5108666;28;20301;-69
2024/03/29 08:36:02;;;;;;;;;;;;;;;;;;5092036;28;19939;-70
2024/03/29 08:38:28;;;;;;;;;;;;;;;;;;5092265;28;19919;-69
2024/03/29 08:40:53;;;;;;;;;;;;;;;;;;5091880;28;20383;-68
2024/03/29 08:43:18;;;;;;;;;;;;;;;;;;5092206;28;19966;-69
2024/03/29 08:45:43;;;;;;;;;;;;;;;;;;5094696;28;19915;-69
2024/03/29 08:48:08;;;;;;;;;;;;;;;;;;5092151;28;19915;-69
2024/03/29 08:50:33;;;;;;;;;;;;;;;;;;5092546;28;19915;-70
2024/03/29 08:52:59;;;;;;;;;;;;;;;;;;5091743;28;19909;-69
2024/03/29 08:55:24;;;;;;;;;;;;;;;;;;5091789;28;19914;-70
2024/03/29 08:57:49;;;;;;;;;;;;;;;;;;5091792;28;19914;-70
2024/03/29 09:00:14;;;;;;;;;;;;;;;;;;5091709;28;19912;-70
2024/03/29 09:02:39;;;;;;;;;;;;;;;;;;5108162;28;19911;-69
2024/03/29 09:05:04;;;;;;;;;;;;;;;;;;5111990;28;19908;-70
2024/03/29 09:07:30;;;;;;;;;;;;;;;;;;5094897;28;19912;-70
2024/03/29 09:09:55;;;;;;;;;;;;;;;;;;5091934;28;19908;-69
2024/03/29 09:12:20;;;;;;;;;;;;;;;;;;5091488;28;20360;-67
2024/03/29 09:14:45;;;;;;;;;;;;;;;;;;5091272;28;19916;-69
2024/03/29 09:17:11;;;;;;;;;;;;;;;;;;5091456;28;19986;-69
2024/03/29 09:19:36;;;;;;;;;;;;;;;;;;5091507;28;19916;-69
2024/03/29 09:22:01;;;;;;;;;;;;;;;;;;5106243;28;19908;-70
2024/03/29 09:24:27;;;;;;;;;;;;;;;;;;5101300;28;19922;-68
2024/03/29 09:26:52;;;;;;;;;;;;;;;;;;5099811;28;19981;-69
2024/03/29 09:29:20;;;;;;;;;;;;;;;;;;5091258;28;19916;-69
2024/03/29 09:31:45;;;;;;;;;;;;;;;;;;5092793;28;20330;-68
2024/03/29 09:34:10;;;;;;;;;;;;;;;;;;5091625;28;20368;-69
2024/03/29 09:36:35;;;;;;;;;;;;;;;;;;5091692;28;20261;-68
2024/03/29 09:39:00;;;;;;;;;;;;;;;;;;5091281;28;19912;-69
2024/03/29 09:41:28;;;;;;;;;;;;;;;;;;5107469;28;19945;-69
2024/03/29 09:43:54;;;;;;;;;;;;;;;;;;5098347;28;20002;-68
2024/03/29 09:46:19;;;;;;;;;;;;;;;;;;5091229;28;19925;-68
2024/03/29 09:48:48;;;;;;;;;;;;;;;;;;5092902;28;19908;-69
2024/03/29 09:51:16;;;;;;;;;;;;;;;;;;5092015;28;19908;-68
2024/03/29 09:53:41;;;;;;;;;;;;;;;;;;5091481;28;19908;-68
2024/03/29 09:56:06;;;;;;;;;;;;;;;;;;5093213;28;19919;-68
2024/03/29 09:58:31;;;;;;;;;;;;;;;;;;5093739;28;19960;-67
2024/03/29 10:00:56;;;;;;;;;;;;;;;;;;5091214;28;20001;-68
2024/03/29 10:03:22;;;;;;;;;;;;;;;;;;5099244;28;20021;-68
2024/03/29 10:05:47;;;;;;;;;;;;;;;;;;5097089;28;19960;-68
2024/03/29 10:08:12;;;;;;;;;;;;;;;;;;5095123;28;19916;-68
2024/03/29 10:10:37;;;;;;;;;;;;;;;;;;5095613;28;19922;-68
2024/03/29 10:13:02;;;;;;;;;;;;;;;;;;5096967;28;19956;-68
2024/03/29 10:15:28;;;;;;;;;;;;;;;;;;5095885;28;19919;-69
2024/03/29 10:17:53;;;;;;;;;;;;;;;;;;5090781;28;20020;-69
2024/03/29 10:20:18;;;;;;;;;;;;;;;;;;5096225;28;19919;-68
2024/03/29 10:22:43;;;;;;;;;;;;;;;;;;5087926;28;19927;-68
2024/03/29 10:25:09;;;;;;;;;;;;;;;;;;5106393;28;19919;-69
2024/03/29 10:27:34;;;;;;;;;;;;;;;;;;5104246;28;19916;-68
2024/03/29 10:29:59;;;;;;;;;;;;;;;;;;5093069;28;20344;-68
2024/03/29 10:32:24;;;;;;;;;;;;;;;;;;5104857;28;19912;-68
2024/03/29 10:34:49;;;;;;;;;;;;;;;;;;5110921;28;19912;-68
2024/03/29 10:37:16;;;;;;;;;;;;;;;;;;5092657;28;20542;-68
2024/03/29 10:39:41;;;;;;;;;;;;;;;;;;5084481;28;20393;-67
2024/03/29 10:42:06;;;;;;;;;;;;;;;;;;5071911;28;20013;-68
2024/03/29 10:44:31;;;;;;;;;;;;;;;;;;5086550;28;19923;-65
2024/03/29 10:46:57;;;;;;;;;;;;;;;;;;5074799;28;20478;-67
2024/03/29 10:49:23;;;;;;;;;;;;;;;;;;5078778;28;19920;-66
2024/03/29 10:51:48;;;;;;;;;;;;;;;;;;5080759;28;19912;-67
2024/03/29 10:54:13;;;;;;;;;;;;;;;;;;5081158;28;19970;-68
2024/03/29 10:56:38;;;;;;;;;;;;;;;;;;5072807;28;19912;-68
2024/03/29 10:59:03;;;;;;;;;;;;;;;;;;5087621;28;20371;-66
2024/03/29 11:01:28;;;;;;;;;;;;;;;;;;5075324;28;20470;-67
2024/03/29 11:03:53;;;;;;;;;;;;;;;;;;5083416;28;20395;-67
2024/03/29 11:06:19;;;;;;;;;;;;;;;;;;5082904;28;19998;-67
2024/03/29 11:08:47;;;;;;;;;;;;;;;;;;5076444;28;20352;-67
2024/03/29 11:11:12;;;;;;;;;;;;;;;;;;5087535;28;19912;-67
2024/03/29 11:13:37;;;;;;;;;;;;;;;;;;5075805;28;19939;-69
2024/03/29 11:16:03;;;;;;;;;;;;;;;;;;5081616;28;20390;-66
2024/03/29 11:18:28;;;;;;;;;;;;;;;;;;5083282;28;19919;-67
2024/03/29 11:20:53;;;;;;;;;;;;;;;;;;5085010;28;20298;-66
2024/03/29 11:23:19;;;;;;;;;;;;;;;;;;5082167;28;19916;-66
2024/03/29 11:25:44;;;;;;;;;;;;;;;;;;5084367;28;19926;-66
2024/03/29 11:28:09;;;;;;;;;;;;;;;;;;5073750;28;19996;-66
2024/03/29 11:30:37;;;;;;;;;;;;;;;;;;5070492;28;20418;-66
2024/03/29 11:33:02;;;;;;;;;;;;;;;;;;5087289;28;20424;-67
2024/03/29 11:35:32;;;;;;;;;;;;;;;;;;5073792;28;20015;-66
2024/03/29 11:37:57;;;;;;;;;;;;;;;;;;5081724;28;19955;-65
2024/03/29 11:40:23;;;;;;;;;;;;;;;;;;5087643;28;19967;-66
2024/03/29 11:42:48;;;;;;;;;;;;;;;;;;5097730;28;19916;-67
2024/03/29 11:45:13;;;;;;;;;;;;;;;;;;5101891;28;19915;-66
2024/03/29 11:47:39;;;;;;;;;;;;;;;;;;5098664;28;20015;-66
2024/03/29 11:50:04;;;;;;;;;;;;;;;;;;5099853;28;19912;-67
2024/03/29 11:52:29;;;;;;;;;;;;;;;;;;5102668;28;20257;-67
2024/03/29 11:54:54;;;;;;;;;;;;;;;;;;5095492;28;20006;-67
2024/03/29 11:57:19;;;;;;;;;;;;;;;;;;5090048;28;20324;-67
2024/03/29 11:59:45;;;;;;;;;;;;;;;;;;5096232;28;19919;-65
2024/03/29 12:02:10;;;;;;;;;;;;;;;;;;5100072;28;19962;-67
2024/03/29 12:04:35;;;;;;;;;;;;;;;;;;5090135;28;19966;-67
2024/03/29 12:07:00;;;;;;;;;;;;;;;;;;5106477;28;19957;-68
2024/03/29 12:09:25;;;;;;;;;;;;;;;;;;5093822;28;19999;-68
2024/03/29 12:11:50;;;;;;;;;;;;;;;;;;5102954;28;19912;-68
2024/03/29 12:14:15;;;;;;;;;;;;;;;;;;5093878;28;19920;-66
2024/03/29 12:16:40;;;;;;;;;;;;;;;;;;5103966;28;20014;-68
2024/03/29 12:19:06;;;;;;;;;;;;;;;;;;5093126;28;19916;-67
2024/03/29 12:21:31;;;;;;;;;;;;;;;;;;5105206;28;19912;-68
2024/03/29 12:23:56;;;;;;;;;;;;;;;;;;5096506;28;19915;-68
2024/03/29 12:26:22;;;;;;;;;;;;;;;;;;5096550;28;19995;-67
2024/03/29 12:28:48;;;;;;;;;;;;;;;;;;5089542;28;20008;-67
2024/03/29 12:31:14;;;;;;;;;;;;;;;;;;5102758;28;19923;-68
2024/03/29 12:33:39;;;;;;;;;;;;;;;;;;5095233;28;19911;-67
2024/03/29 12:36:05;;;;;;;;;;;;;;;;;;5100635;28;19912;-67
2024/03/29 12:38:32;;;;;;;;;;;;;;;;;;5096439;28;19923;-66
2024/03/29 12:40:57;;;;;;;;;;;;;;;;;;5099947;28;19938;-58
2024/03/29 12:43:22;;;;;;;;;;;;;;;;;;5096315;28;19920;-58
2024/03/29 12:45:47;;;;;;;;;;;;;;;;;;5089208;28;19912;-58
2024/03/29 12:48:13;;;;;;;;;;;;;;;;;;5094409;28;19926;-58
2024/03/29 12:50:38;;;;;;;;;;;;;;;;;;5089331;28;20016;-59
2024/03/29 12:53:03;;;;;;;;;;;;;;;;;;5105967;28;19939;-58
2024/03/29 12:55:30;;;;;;;;;;;;;;;;;;5094104;28;19973;-59
2024/03/29 12:57:55;;;;;;;;;;;;;;;;;;5089182;28;20472;-58
2024/03/29 13:00:20;;;;;;;;;;;;;;;;;;5100720;28;20003;-58
2024/03/29 13:02:45;;;;;;;;;;;;;;;;;;5094235;28;19974;-57
2024/03/29 13:05:11;;;;;;;;;;;;;;;;;;5094425;28;19919;-58
2024/03/29 13:07:36;;;;;;;;;;;;;;;;;;5103996;28;20026;-59
2024/03/29 13:10:10;;;;;;;;;;;;;;;;;;5097634;28;20002;-58
2024/03/29 13:12:36;;;;;;;;;;;;;;;;;;5105986;28;20126;-58
2024/03/29 13:15:02;;;;;;;;;;;;;;;;;;5105819;28;20461;-58
2024/03/29 13:17:27;;;;;;;;;;;;;;;;;;5092754;28;19912;-59
2024/03/29 13:19:52;;;;;;;;;;;;;;;;;;5101346;28;20019;-58
2024/03/29 13:22:18;;;;;;;;;;;;;;;;;;5100117;28;19912;-58
2024/03/29 13:24:43;;;;;;;;;;;;;;;;;;5093957;28;19987;-58
2024/03/29 13:27:08;;;;;;;;;;;;;;;;;;5094641;28;19912;-59
2024/03/29 13:29:33;;;;;;;;;;;;;;;;;;5088473;28;19918;-58
2024/03/29 13:31:59;;;;;;;;;;;;;;;;;;5096875;28;19918;-59
2024/03/29 13:34:24;;;;;;;;;;;;;;;;;;5109008;28;19954;-57
2024/03/29 13:36:49;;;;;;;;;;;;;;;;;;5093486;28;19912;-58
2024/03/29 13:39:15;;;;;;;;;;;;;;;;;;5094132;28;20331;-59
2024/03/29 13:41:40;;;;;;;;;;;;;;;;;;5102740;28;19923;-58
2024/03/29 13:44:05;;;;;;;;;;;;;;;;;;5097950;28;19911;-57
2024/03/29 13:46:30;;;;;;;;;;;;;;;;;;5095735;28;19912;-59
2024/03/29 13:48:55;;;;;;;;;;;;;;;;;;5104816;28;20004;-59
2024/03/29 13:51:21;;;;;;;;;;;;;;;;;;5091900;28;20015;-58
2024/03/29 13:53:46;;;;;;;;;;;;;;;;;;5098367;28;19974;-59
2024/03/29 13:56:11;;;;;;;;;;;;;;;;;;5097972;28;19943;-59
2024/03/29 13:58:36;;;;;;;;;;;;;;;;;;5095741;28;20007;-59
2024/03/29 14:01:01;;;;;;;;;;;;;;;;;;5096396;28;20402;-59
2024/03/29 14:03:26;;;;;;;;;;;;;;;;;;5105255;28;20434;-58
2024/03/29 14:05:51;;;;;;;;;;;;;;;;;;5092376;28;19912;-58
2024/03/29 14:08:16;;;;;;;;;;;;;;;;;;5103450;28;19915;-60
2024/03/29 14:10:42;;;;;;;;;;;;;;;;;;5097925;28;19912;-60
2024/03/29 14:13:09;;;;;;;;;;;;;;;;;;5097477;28;19935;-59
2024/03/29 14:15:34;;;;;;;;;;;;;;;;;;5107948;28;19969;-59
2024/03/29 14:17:59;;;;;;;;;;;;;;;;;;5107693;28;19920;-58
2024/03/29 14:20:24;;;;;;;;;;;;;;;;;;5100976;28;19912;-58
2024/03/29 14:22:54;;;;;;;;;;;;;;;;;;5093693;28;19916;-58
2024/03/29 14:25:19;;;;;;;;;;;;;;;;;;5109098;28;19919;-59
2024/03/29 14:27:47;;;;;;;;;;;;;;;;;;5098486;28;19912;-59
2024/03/29 14:30:12;;;;;;;;;;;;;;;;;;5098643;28;19928;-58
2024/03/29 14:32:37;;;;;;;;;;;;;;;;;;5106251;28;19920;-58
2024/03/29 14:35:04;;;;;;;;;;;;;;;;;;5108475;28;20003;-59
2024/03/29 14:37:29;;;;;;;;;;;;;;;;;;5094431;28;19912;-59
2024/03/29 14:39:54;;;;;;;;;;;;;;;;;;5090676;28;20537;-59
2024/03/29 14:42:22;;;;;;;;;;;;;;;;;;5080059;28;20005;-58
2024/03/29 14:44:47;;;;;;;;;;;;;;;;;;5071873;28;20392;-60
2024/03/29 14:47:14;;;;;;;;;;;;;;;;;;5076961;28;20000;-58
2024/03/29 14:49:39;;;;;;;;;;;;;;;;;;5085658;28;19995;-59
2024/03/29 14:52:04;;;;;;;;;;;;;;;;;;5080594;28;20003;-58
2024/03/29 14:54:30;;;;;;;;;;;;;;;;;;5078716;28;20585;-61
2024/03/29 14:56:55;;;;;;;;;;;;;;;;;;5073026;28;19912;-59
2024/03/29 14:59:20;;;;;;;;;;;;;;;;;;5078733;28;19920;-59
2024/03/29 15:01:45;;;;;;;;;;;;;;;;;;5077879;28;20327;-67
2024/03/29 15:04:10;;;;;;;;;;;;;;;;;;5086419;28;19916;-66
2024/03/29 15:06:36;;;;;;;;;;;;;;;;;;5077728;28;19912;-65
2024/03/29 15:09:02;;;;;;;;;;;;;;;;;;5087330;28;19912;-67
2024/03/29 15:11:27;;;;;;;;;;;;;;;;;;5074636;28;20011;-66
2024/03/29 15:13:52;;;;;;;;;;;;;;;;;;5083553;28;20007;-66
2024/03/29 15:16:18;;;;;;;;;;;;;;;;;;5074592;28;19924;-66
2024/03/29 15:18:43;;;;;;;;;;;;;;;;;;5082944;28;19934;-66
2024/03/29 15:21:10;;;;;;;;;;;;;;;;;;5079032;28;20624;-66
2024/03/29 15:23:36;;;;;;;;;;;;;;;;;;5084984;28;19934;-65
2024/03/29 15:26:01;;;;;;;;;;;;;;;;;;5081877;28;19989;-66
2024/03/29 15:31:15;;;;;;;;;;;;;;;;;;5077539;28;20415;-67
2024/03/29 15:33:40;;;;;;;;;;;;;;;;;;5084574;28;19919;-66
2024/03/29 15:36:06;;;;;;;;;;;;;;;;;;5079527;28;19912;-66
2024/03/29 15:38:31;;;;;;;;;;;;;;;;;;5075040;28;19920;-65
2024/03/29 15:40:56;;;;;;;;;;;;;;;;;;5103640;28;19939;-67
2024/03/29 15:43:21;;;;;;;;;;;;;;;;;;5093773;28;20350;-68
2024/03/29 15:45:46;;;;;;;;;;;;;;;;;;5103454;28;19926;-67
2024/03/29 15:48:11;;;;;;;;;;;;;;;;;;5100400;28;19951;-65
2024/03/29 15:50:37;;;;;;;;;;;;;;;;;;5096500;28;20294;-66
2024/03/29 15:53:03;;;;;;;;;;;;;;;;;;5106608;28;20007;-67
2024/03/29 15:55:28;;;;;;;;;;;;;;;;;;5093970;28;19916;-67
2024/03/29 15:57:54;;;;;;;;;;;;;;;;;;5099906;28;19915;-67
2024/03/29 16:00:19;;;;;;;;;;;;;;;;;;5102991;28;19908;-68
2024/03/29 16:02:44;;;;;;;;;;;;;;;;;;5097941;28;19912;-67
2024/03/29 16:05:09;;;;;;;;;;;;;;;;;;5098214;28;20357;-67
2024/03/29 16:07:34;;;;;;;;;;;;;;;;;;5097498;28;20332;-68
2024/03/29 16:09:59;;;;;;;;;;;;;;;;;;5099527;28;20351;-68
2024/03/29 16:12:24;;;;;;;;;;;;;;;;;;5104686;28;20277;-59
2024/03/29 16:14:50;;;;;;;;;;;;;;;;;;5092645;28;19931;-59
2024/03/29 16:17:15;;;;;;;;;;;;;;;;;;5107974;28;20287;-59
2024/03/29 16:19:40;;;;;;;;;;;;;;;;;;5112623;28;19918;-65
2024/03/29 16:22:05;;;;;;;;;;;;;;;;;;5111770;28;19916;-63
2024/03/29 16:24:30;;;;;;;;;;;;;;;;;;5112450;28;19911;-63
2024/03/29 16:26:55;;;;;;;;;;;;;;;;;;5096245;28;19912;-66
2024/03/29 16:29:20;;;;;;;;;;;;;;;;;;5094976;28;20002;-65
2024/03/29 16:31:47;;;;;;;;;;;;;;;;;;5092453;28;19919;-66
2024/03/29 16:34:14;;;;;;;;;;;;;;;;;;5107076;28;19915;-66
2024/03/29 16:36:39;;;;;;;;;;;;;;;;;;5112366;28;19915;-66
2024/03/29 16:39:04;;;;;;;;;;;;;;;;;;5112202;28;19915;-66
2024/03/29 16:41:29;;;;;;;;;;;;;;;;;;5109358;28;19966;-66